Time;durP1;ratioP1;P1;durP2;ratioP2;P2;SDS_P1;SDS_P2;PMS_P1;PMS_P2;Temp;Humidity;BMP_temperature;BMP_pressure;BME280_temperature;BME280_humidity;BME280_pressure;Samples;Min_cycle;Max_cycle;Signal;HPM_P1;HPM_P2
2021/04/09 00:02:07;;;;;;;17.10;15.30;;;6.80;99.90;;;;;;4996052;28;20653;-67
2021/04/09 00:04:40;;;;;;;17.10;15.20;;;6.80;99.90;;;;;;4995100;28;20618;-67
2021/04/09 00:07:09;;;;;;;17.40;15.60;;;6.70;99.90;;;;;;4977620;28;20799;-67
2021/04/09 00:09:38;;;;;;;17.77;16.10;;;6.80;99.90;;;;;;4991921;28;20618;-66
2021/04/09 00:12:10;;;;;;;18.17;16.37;;;6.80;99.90;;;;;;4989471;28;20647;-67
2021/04/09 00:14:36;;;;;;;18.13;16.20;;;6.70;99.90;;;;;;4989892;28;20623;-67
2021/04/09 00:17:09;;;;;;;16.73;14.93;;;6.80;99.90;;;;;;4992676;28;20657;-67
2021/04/09 00:19:46;;;;;;;17.20;15.50;;;6.80;99.90;;;;;;4990131;28;20218;-66
2021/04/09 00:22:15;;;;;;;17.10;15.40;;;6.70;99.90;;;;;;4989741;28;21192;-66
2021/04/09 00:24:51;;;;;;;15.67;14.03;;;6.90;99.90;;;;;;4990769;28;20795;-66
2021/04/09 00:27:19;;;;;;;16.97;15.37;;;6.80;99.90;;;;;;4993839;28;22125;-67
2021/04/09 00:29:48;;;;;;;16.27;14.67;;;6.70;99.90;;;;;;4987774;28;20631;-70
2021/04/09 00:32:23;;;;;;;17.73;16.00;;;6.80;99.90;;;;;;4969662;28;20655;-67
2021/04/09 00:34:55;;;;;;;17.00;15.13;;;6.70;99.90;;;;;;4967684;28;21118;-67
2021/04/09 00:37:23;;;;;;;18.30;16.53;;;6.70;99.90;;;;;;4991523;28;20649;-67
2021/04/09 00:40:01;;;;;;;19.23;16.03;;;6.70;99.90;;;;;;4975041;28;20653;-67
2021/04/09 00:42:32;;;;;;;17.20;15.40;;;6.70;99.90;;;;;;4976375;28;20670;-67
2021/04/09 00:44:58;;;;;;;16.27;14.67;;;6.80;99.90;;;;;;4988251;28;20671;-67
2021/04/09 00:47:29;;;;;;;16.40;14.70;;;6.70;99.90;;;;;;4991000;28;20827;-67
2021/04/09 00:49:54;;;;;;;16.80;14.93;;;6.80;99.90;;;;;;4993669;28;21316;-68
2021/04/09 00:52:34;;;;;;;16.67;14.87;;;6.90;99.90;;;;;;5014856;28;23496;-67
2021/04/09 00:55:00;;;;;;;16.63;15.03;;;6.90;99.90;;;;;;5004547;28;20242;-67
2021/04/09 00:57:34;;;;;;;16.40;14.70;;;6.80;99.90;;;;;;4977522;28;20680;-67
2021/04/09 01:00:06;;;;;;;15.67;13.93;;;6.80;99.90;;;;;;4988173;28;20626;-67
2021/04/09 01:02:37;;;;;;;17.20;15.60;;;6.80;99.90;;;;;;4991012;28;20832;-67
2021/04/09 01:05:09;;;;;;;16.33;14.67;;;6.70;99.90;;;;;;4986438;28;20693;-67
2021/04/09 01:07:41;;;;;;;17.07;14.80;;;6.70;99.90;;;;;;4972053;28;20784;-67
2021/04/09 01:10:14;;;;;;;17.80;15.40;;;6.60;99.90;;;;;;4989229;28;20610;-67
2021/04/09 01:12:40;;;;;;;16.47;14.70;;;6.70;99.90;;;;;;4982317;28;20674;-63
2021/04/09 01:15:12;;;;;;;17.53;15.73;;;6.70;99.90;;;;;;4986904;28;20618;-63
2021/04/09 01:18:14;;;;;;;16.13;14.50;;;6.70;99.90;;;;;;4988254;28;20731;-64
2021/04/09 01:21:12;;;;;;;16.20;14.30;;;6.80;99.90;;;;;;4989669;28;20615;-64
2021/04/09 01:24:16;;;;;;;16.87;14.40;;;6.80;99.90;;;;;;4987646;28;20729;-65
2021/04/09 01:26:53;;;;;;;15.83;14.17;;;6.80;99.90;;;;;;4991562;28;20782;-64
2021/04/09 01:29:55;;;;;;;17.90;15.97;;;6.80;99.90;;;;;;4987672;28;20841;-65
2021/04/09 01:32:43;;;;;;;16.97;14.83;;;6.90;99.90;;;;;;4985936;28;21366;-63
2021/04/09 01:35:36;;;;;;;16.73;15.13;;;6.80;99.90;;;;;;4983750;28;21237;-65
2021/04/09 01:38:07;;;;;;;18.67;14.67;;;6.80;99.90;;;;;;4975277;28;20658;-63
2021/04/09 01:40:49;;;;;;;17.43;14.80;;;6.80;99.90;;;;;;4988949;28;20592;-65
2021/04/09 01:43:20;;;;;;;17.73;15.13;;;6.80;99.90;;;;;;4972240;28;20642;-65
2021/04/09 01:45:49;;;;;;;16.63;14.27;;;6.90;99.90;;;;;;4980679;28;20699;-65
2021/04/09 01:48:55;;;;;;;;;;;;;;;;;;;;;
2021/04/09 01:51:27;;;;;;;16.97;15.17;;;6.90;99.90;;;;;;4990393;28;20652;-63
2021/04/09 01:54:00;;;;;;;17.40;14.50;;;6.90;99.90;;;;;;4985556;28;20792;-63
2021/04/09 01:56:27;;;;;;;18.00;14.20;;;6.80;99.90;;;;;;4987880;28;21208;-63
2021/04/09 01:58:59;;;;;;;17.00;15.07;;;6.80;99.90;;;;;;4990863;28;20645;-64
2021/04/09 02:01:27;;;;;;;18.63;14.90;;;6.80;99.90;;;;;;4985392;28;22301;-64
2021/04/09 02:04:09;;;;;;;16.30;14.37;;;6.80;99.90;;;;;;4987360;28;21292;-65
2021/04/09 02:06:50;;;;;;;18.70;15.83;;;6.80;99.90;;;;;;4975562;28;21593;-64
2021/04/09 02:09:18;;;;;;;18.23;15.17;;;6.80;99.90;;;;;;4989904;28;20629;-64
2021/04/09 02:11:51;;;;;;;17.60;15.17;;;6.70;99.90;;;;;;4971694;28;20654;-64
2021/04/09 02:14:20;;;;;;;17.43;15.17;;;6.70;99.90;;;;;;4988632;28;20722;-64
2021/04/09 02:16:49;;;;;;;18.30;14.70;;;6.70;99.90;;;;;;4970145;28;20675;-64
2021/04/09 02:19:26;;;;;;;18.70;15.60;;;6.70;99.90;;;;;;4985911;28;20623;-63
2021/04/09 02:22:13;;;;;;;17.60;14.80;;;6.70;99.90;;;;;;4988150;28;20643;-65
2021/04/09 02:24:50;;;;;;;15.33;13.30;;;6.60;99.90;;;;;;4988138;28;20750;-65
2021/04/09 02:27:16;;;;;;;16.67;14.90;;;6.50;99.90;;;;;;4978417;28;20761;-65
2021/04/09 02:30:02;;;;;;;17.80;14.77;;;6.60;99.90;;;;;;4998795;28;20631;-63
2021/04/09 02:32:31;;;;;;;16.70;14.90;;;6.60;99.90;;;;;;4996556;28;20650;-67
2021/04/09 02:35:03;;;;;;;16.90;13.80;;;6.60;99.90;;;;;;4999004;28;20622;-67
2021/04/09 02:37:31;;;;;;;16.13;14.40;;;6.50;99.90;;;;;;4995704;28;20669;-67
2021/04/09 02:40:02;;;;;;;17.23;14.50;;;6.50;99.90;;;;;;4995092;28;20731;-67
2021/04/09 02:42:53;;;;;;;19.87;14.67;;;6.50;99.90;;;;;;4994023;28;20966;-67
2021/04/09 02:45:29;;;;;;;19.50;15.30;;;6.50;99.90;;;;;;4994109;28;20635;-69
2021/04/09 02:48:00;;;;;;;17.33;15.00;;;6.40;99.90;;;;;;4994799;28;20765;-67
2021/04/09 02:50:49;;;;;;;16.63;14.93;;;6.50;99.90;;;;;;4994191;28;20656;-66
2021/04/09 02:53:20;;;;;;;14.93;13.33;;;6.40;99.90;;;;;;4990747;28;22241;-66
2021/04/09 02:55:50;;;;;;;15.90;14.20;;;6.30;99.90;;;;;;4991505;28;20606;-66
2021/04/09 02:58:17;;;;;;;17.87;14.10;;;6.40;99.90;;;;;;4994458;28;21220;-67
2021/04/09 03:00:49;;;;;;;16.73;13.87;;;6.30;99.90;;;;;;4991683;28;20649;-67
2021/04/09 03:03:20;;;;;;;16.33;14.57;;;6.30;99.90;;;;;;4991058;28;20651;-66
2021/04/09 03:05:52;;;;;;;18.33;14.90;;;6.30;99.90;;;;;;4995192;28;21323;-67
2021/04/09 03:08:39;;;;;;;18.50;14.23;;;6.30;99.90;;;;;;4978825;28;20631;-67
2021/04/09 03:11:06;;;;;;;16.63;13.90;;;6.30;99.90;;;;;;4977241;28;20669;-66
2021/04/09 03:13:32;;;;;;;16.43;14.40;;;6.20;99.90;;;;;;4991452;28;20814;-66
2021/04/09 03:16:16;;;;;;;17.83;14.50;;;6.20;99.90;;;;;;4990666;28;20741;-66
2021/04/09 03:18:46;;;;;;;18.80;14.10;;;6.20;99.90;;;;;;4991386;28;20332;-66
2021/04/09 03:21:22;;;;;;;18.27;14.10;;;6.30;99.90;;;;;;4987592;28;21218;-66
2021/04/09 03:23:59;;;;;;;17.43;14.60;;;6.20;99.90;;;;;;4987246;28;20660;-67
2021/04/09 03:29:14;;;;;;;15.33;13.53;;;6.10;99.90;;;;;;4991651;28;21180;-69
2021/04/09 03:31:46;;;;;;;15.90;14.20;;;6.10;99.90;;;;;;4995060;28;21166;-67
2021/04/09 03:34:17;;;;;;;16.27;14.20;;;6.00;99.90;;;;;;4989230;28;20645;-67
2021/04/09 03:36:55;;;;;;;16.40;14.70;;;6.00;99.90;;;;;;4983653;28;20724;-67
2021/04/09 03:39:33;;;;;;;19.63;14.97;;;6.00;99.90;;;;;;4994714;28;21355;-67
2021/04/09 03:42:16;;;;;;;16.23;14.37;;;6.00;99.90;;;;;;4992336;28;22701;-67
2021/04/09 03:44:43;;;;;;;19.30;14.93;;;6.10;99.90;;;;;;4995345;28;20621;-67
2021/04/09 03:47:12;;;;;;;16.60;14.73;;;6.00;99.90;;;;;;4993710;28;20769;-67
2021/04/09 03:49:48;;;;;;;18.10;16.20;;;6.00;99.90;;;;;;4994157;28;21219;-67
2021/04/09 03:52:14;;;;;;;17.03;14.40;;;6.00;99.90;;;;;;4994944;28;20650;-67
2021/04/09 03:54:50;;;;;;;17.43;14.90;;;6.00;99.90;;;;;;4997175;28;21593;-67
2021/04/09 03:57:40;;;;;;;16.60;13.17;;;6.00;99.90;;;;;;4976599;28;20207;-67
2021/04/09 04:00:14;;;;;;;17.90;13.97;;;6.00;99.90;;;;;;4990003;28;20717;-66
2021/04/09 04:02:39;;;;;;;18.33;14.10;;;6.00;99.90;;;;;;4974713;28;20650;-67
2021/04/09 04:05:11;;;;;;;16.67;14.97;;;6.00;99.90;;;;;;4980318;28;21909;-67
2021/04/09 04:07:38;;;;;;;15.53;13.93;;;6.10;99.90;;;;;;4980517;28;20327;-67
2021/04/09 04:10:10;;;;;;;16.67;14.30;;;6.00;99.90;;;;;;4988654;28;20614;-67
2021/04/09 04:12:41;;;;;;;15.53;13.90;;;6.00;99.90;;;;;;4991508;28;20664;-66
2021/04/09 04:15:09;;;;;;;16.13;13.77;;;6.00;99.90;;;;;;4991756;28;20730;-69
2021/04/09 04:17:45;;;;;;;18.57;14.60;;;6.00;99.90;;;;;;4991047;28;21254;-67
2021/04/09 04:20:16;;;;;;;18.60;14.10;;;6.10;99.90;;;;;;4989591;28;20617;-67
2021/04/09 04:22:41;;;;;;;17.83;15.73;;;6.00;99.90;;;;;;4994350;28;20881;-67
2021/04/09 04:25:10;;;;;;;17.03;13.97;;;6.00;99.90;;;;;;4979169;28;20630;-67
2021/04/09 04:27:38;;;;;;;17.10;13.17;;;6.00;99.90;;;;;;4993490;28;20268;-67
2021/04/09 04:30:15;;;;;;;15.40;13.80;;;6.00;99.90;;;;;;4973837;28;20641;-67
2021/04/09 04:32:41;;;;;;;17.80;14.10;;;6.00;99.90;;;;;;4989116;28;20725;-67
2021/04/09 04:35:10;;;;;;;14.57;13.07;;;6.00;99.90;;;;;;4988320;28;21563;-67
2021/04/09 04:37:36;;;;;;;17.10;13.40;;;6.00;99.90;;;;;;4992791;28;20719;-67
2021/04/09 04:40:02;;;;;;;19.80;14.00;;;6.00;99.90;;;;;;4990604;28;23200;-66
2021/04/09 04:42:32;;;;;;;16.37;14.20;;;6.00;99.90;;;;;;4988978;28;22462;-67
2021/04/09 04:45:22;;;;;;;;;;;;;;;;;;;;;
2021/04/09 04:47:50;;;;;;;18.57;13.20;;;6.00;99.90;;;;;;4990710;28;20635;-66
2021/04/09 04:50:16;;;;;;;16.60;13.80;;;6.00;99.90;;;;;;4989460;28;20622;-67
2021/04/09 04:52:55;;;;;;;15.90;13.33;;;6.00;99.90;;;;;;4973639;28;21757;-67
2021/04/09 04:55:21;;;;;;;16.70;14.37;;;6.10;99.90;;;;;;4989971;28;20207;-66
2021/04/09 04:57:46;;;;;;;16.80;13.87;;;6.10;99.90;;;;;;4989284;28;20795;-67
2021/04/09 05:00:17;;;;;;;16.43;12.70;;;6.10;99.90;;;;;;4989070;28;20623;-66
2021/04/09 05:02:48;;;;;;;16.13;13.90;;;6.00;99.90;;;;;;4987518;28;20303;-67
2021/04/09 05:05:14;;;;;;;17.53;14.00;;;6.00;99.90;;;;;;4969187;28;21023;-67
2021/04/09 05:07:40;;;;;;;15.13;13.27;;;6.00;99.90;;;;;;4988647;28;20736;-68
2021/04/09 05:10:12;;;;;;;16.60;14.27;;;6.10;99.90;;;;;;4973466;28;20270;-64
2021/04/09 05:12:49;;;;;;;17.10;14.00;;;6.10;99.90;;;;;;4976319;28;20228;-66
2021/04/09 05:15:17;;;;;;;18.27;14.27;;;6.10;99.90;;;;;;4970794;28;20795;-65
2021/04/09 05:17:50;;;;;;;17.53;13.63;;;6.00;99.90;;;;;;4988213;28;21326;-63
2021/04/09 05:20:23;;;;;;;16.37;14.63;;;6.10;99.90;;;;;;4991552;28;20713;-64
2021/04/09 05:22:57;;;;;;;18.83;14.00;;;6.10;99.90;;;;;;4989315;28;20754;-64
2021/04/09 05:25:31;;;;;;;17.23;13.27;;;6.20;99.90;;;;;;4990812;28;20613;-64
2021/04/09 05:27:56;;;;;;;16.27;13.80;;;6.10;99.90;;;;;;4990966;28;22738;-64
2021/04/09 05:30:22;;;;;;;16.13;13.43;;;6.20;99.90;;;;;;4986065;28;20634;-65
2021/04/09 05:32:49;;;;;;;14.50;13.07;;;6.20;99.90;;;;;;4977994;28;20440;-66
2021/04/09 05:35:15;;;;;;;14.80;13.30;;;6.30;99.90;;;;;;4960852;28;22713;-65
2021/04/09 05:37:42;;;;;;;15.77;13.30;;;6.30;99.90;;;;;;4980577;28;20719;-66
2021/04/09 05:40:13;;;;;;;15.77;13.63;;;6.20;99.90;;;;;;4971984;28;20300;-66
2021/04/09 05:42:41;;;;;;;15.40;13.83;;;6.30;99.90;;;;;;4981722;28;21097;-67
2021/04/09 05:45:07;;;;;;;14.17;12.63;;;6.30;99.90;;;;;;4962095;28;21856;-66
2021/04/09 05:47:33;;;;;;;15.47;13.37;;;6.30;99.90;;;;;;4969384;28;20646;-67
2021/04/09 05:49:59;;;;;;;17.00;14.10;;;6.40;99.90;;;;;;4957893;28;20608;-67
2021/04/09 05:52:27;;;;;;;15.00;13.40;;;6.40;99.90;;;;;;4974903;28;21883;-66
2021/04/09 05:54:52;;;;;;;16.70;13.20;;;6.40;99.90;;;;;;4975858;28;20207;-67
2021/04/09 05:57:18;;;;;;;17.57;14.40;;;6.40;99.90;;;;;;4964750;28;20662;-67
2021/04/09 05:59:45;;;;;;;16.80;13.73;;;6.40;99.90;;;;;;4978736;28;20336;-66
2021/04/09 06:02:11;;;;;;;16.90;13.83;;;6.50;99.90;;;;;;4978822;28;20235;-66
2021/04/09 06:04:37;;;;;;;15.70;14.10;;;6.40;99.90;;;;;;4946281;28;20630;-64
2021/04/09 06:07:02;;;;;;;15.70;13.47;;;6.30;99.90;;;;;;4976714;28;20772;-65
2021/04/09 06:09:28;;;;;;;15.57;13.37;;;6.40;99.90;;;;;;4976868;28;20385;-65
2021/04/09 06:11:55;;;;;;;15.20;13.57;;;6.40;99.90;;;;;;4977852;28;20232;-65
2021/04/09 06:14:22;;;;;;;19.93;13.37;;;6.50;99.90;;;;;;4975794;28;21195;-67
2021/04/09 06:16:50;;;;;;;13.60;12.13;;;6.40;99.90;;;;;;4996542;28;20659;-67
2021/04/09 06:19:15;;;;;;;14.67;13.10;;;6.40;99.90;;;;;;4968351;28;23255;-66
2021/04/09 06:21:41;;;;;;;16.03;13.80;;;6.40;99.90;;;;;;4952657;28;20998;-67
2021/04/09 06:24:10;;;;;;;17.13;14.07;;;6.40;99.90;;;;;;4971297;28;20194;-67
2021/04/09 06:26:36;;;;;;;17.93;13.40;;;6.40;99.90;;;;;;4970720;28;20484;-67
2021/04/09 06:29:02;;;;;;;14.43;12.30;;;6.40;99.90;;;;;;4971639;28;20987;-66
2021/04/09 06:31:27;;;;;;;14.27;12.77;;;6.50;99.90;;;;;;4959973;28;20666;-66
2021/04/09 06:33:53;;;;;;;15.70;13.63;;;6.50;99.90;;;;;;4969260;28;20333;-65
2021/04/09 06:36:18;;;;;;;17.30;13.73;;;6.40;99.90;;;;;;4974611;28;20204;-65
2021/04/09 06:38:44;;;;;;;15.90;14.17;;;6.50;99.90;;;;;;4971788;28;20260;-65
2021/04/09 06:41:10;;;;;;;15.87;13.97;;;6.50;99.90;;;;;;4957983;28;20196;-66
2021/04/09 06:43:37;;;;;;;15.80;14.10;;;6.50;99.90;;;;;;4960583;28;20273;-66
2021/04/09 06:46:04;;;;;;;16.70;13.50;;;6.40;99.90;;;;;;4978572;28;21865;-67
2021/04/09 06:48:29;;;;;;;16.40;13.73;;;6.40;99.90;;;;;;4956021;28;25503;-66
2021/04/09 06:50:55;;;;;;;18.53;14.70;;;6.50;99.90;;;;;;4969892;28;24475;-67
2021/04/09 06:53:21;;;;;;;20.13;15.27;;;6.50;99.90;;;;;;4969633;28;20223;-66
2021/04/09 06:55:47;;;;;;;22.80;14.10;;;6.60;99.90;;;;;;4973723;28;20558;-66
2021/04/09 06:58:18;;;;;;;15.07;13.50;;;6.70;99.90;;;;;;4958693;28;20635;-66
2021/04/09 07:00:46;;;;;;;14.97;13.37;;;6.80;99.90;;;;;;4977524;28;20192;-66
2021/04/09 07:03:12;;;;;;;15.90;13.53;;;6.90;99.90;;;;;;4968830;28;20940;-66
2021/04/09 07:05:38;;;;;;;16.50;13.50;;;6.90;99.90;;;;;;4982433;28;20610;-66
2021/04/09 07:08:04;;;;;;;15.43;13.83;;;6.80;99.90;;;;;;4978667;28;20655;-67
2021/04/09 07:10:30;;;;;;;15.57;13.60;;;6.90;99.90;;;;;;4976557;28;20573;-66
2021/04/09 07:13:07;;;;;;;15.20;13.23;;;7.00;99.90;;;;;;4980887;28;20846;-66
2021/04/09 07:16:07;;;;;;;15.37;13.80;;;7.00;99.90;;;;;;4975427;28;20199;-66
2021/04/09 07:18:57;;;;;;;16.83;13.43;;;7.00;99.90;;;;;;4961134;28;20638;-66
2021/04/09 07:21:28;;;;;;;15.20;13.60;;;7.10;99.90;;;;;;4985798;28;20590;-65
2021/04/09 07:24:12;;;;;;;15.37;13.37;;;7.10;99.90;;;;;;4980345;28;21918;-66
2021/04/09 07:26:40;;;;;;;17.07;13.80;;;7.10;99.90;;;;;;4977782;28;20671;-66
2021/04/09 07:29:07;;;;;;;14.17;12.77;;;7.20;99.90;;;;;;4954476;28;20698;-66
2021/04/09 07:31:33;;;;;;;17.30;13.97;;;7.20;99.90;;;;;;4965166;28;20660;-66
2021/04/09 07:33:59;;;;;;;17.17;14.00;;;7.20;99.90;;;;;;4959908;28;20619;-66
2021/04/09 07:36:27;;;;;;;15.83;13.80;;;7.30;99.90;;;;;;4978617;28;21031;-67
2021/04/09 07:38:52;;;;;;;17.63;13.97;;;7.30;99.90;;;;;;4978471;28;20911;-65
2021/04/09 07:41:18;;;;;;;15.37;13.73;;;7.30;99.90;;;;;;4974711;28;22869;-66
2021/04/09 07:43:45;;;;;;;15.33;13.73;;;7.30;99.90;;;;;;4960630;28;20228;-66
2021/04/09 07:46:22;;;;;;;15.80;14.10;;;7.30;99.90;;;;;;4974439;28;20638;-66
2021/04/09 07:48:49;;;;;;;16.20;13.30;;;7.40;99.90;;;;;;4967116;28;20736;-67
2021/04/09 07:51:20;;;;;;;15.73;14.03;;;7.50;99.90;;;;;;4977314;28;20638;-66
2021/04/09 07:53:47;;;;;;;15.43;13.80;;;7.60;99.90;;;;;;4960428;28;20647;-66
2021/04/09 07:56:17;;;;;;;15.87;14.27;;;7.60;99.90;;;;;;4952704;28;20844;-65
2021/04/09 07:58:44;;;;;;;15.47;13.87;;;7.80;99.90;;;;;;4974189;28;20673;-66
2021/04/09 08:01:20;;;;;;;21.63;14.33;;;7.80;99.90;;;;;;4979382;28;22184;-66
2021/04/09 08:03:48;;;;;;;18.80;14.43;;;7.90;99.90;;;;;;4977189;28;21902;-66
2021/04/09 08:06:15;;;;;;;16.30;14.37;;;7.90;99.90;;;;;;4974946;28;20742;-67
2021/04/09 08:08:56;;;;;;;17.97;14.67;;;8.00;99.90;;;;;;4958707;28;20726;-65
2021/04/09 08:11:30;;;;;;;15.60;14.00;;;8.00;99.90;;;;;;4974817;28;20634;-65
2021/04/09 08:14:07;;;;;;;21.00;14.80;;;8.20;99.90;;;;;;4985964;28;21016;-65
2021/04/09 08:16:44;;;;;;;19.03;14.60;;;8.10;99.90;;;;;;4973730;28;20776;-65
2021/04/09 08:19:15;;;;;;;15.00;13.37;;;8.20;99.90;;;;;;4985625;28;21161;-65
2021/04/09 08:21:43;;;;;;;17.13;14.20;;;8.30;99.90;;;;;;4976370;28;21696;-66
2021/04/09 08:24:10;;;;;;;16.10;13.30;;;8.30;99.90;;;;;;4976500;28;20713;-66
2021/04/09 08:26:37;;;;;;;15.53;13.93;;;8.40;99.90;;;;;;4956179;28;20643;-66
2021/04/09 08:29:05;;;;;;;16.23;13.40;;;8.50;99.90;;;;;;4974633;28;20941;-66
2021/04/09 08:31:32;;;;;;;15.00;13.50;;;8.50;99.90;;;;;;4973153;28;21257;-66
2021/04/09 08:33:58;;;;;;;14.63;13.13;;;8.60;99.90;;;;;;4972881;28;21664;-66
2021/04/09 08:36:25;;;;;;;15.93;13.40;;;8.80;99.90;;;;;;4963396;28;20738;-65
2021/04/09 08:38:52;;;;;;;17.20;14.10;;;8.90;99.90;;;;;;4975911;28;20185;-66
2021/04/09 08:41:18;;;;;;;18.30;14.20;;;8.90;99.90;;;;;;4972317;28;20623;-66
2021/04/09 08:43:45;;;;;;;15.20;13.30;;;8.90;99.90;;;;;;4969143;28;20777;-65
2021/04/09 08:46:10;;;;;;;16.63;13.07;;;9.00;99.90;;;;;;4975196;28;20622;-66
2021/04/09 08:48:38;;;;;;;15.13;13.63;;;9.00;99.90;;;;;;4973066;28;20650;-66
2021/04/09 08:51:05;;;;;;;15.40;13.77;;;9.10;99.90;;;;;;4978943;28;20662;-65
2021/04/09 08:53:32;;;;;;;16.43;12.57;;;9.20;99.90;;;;;;4979190;28;20890;-66
2021/04/09 08:55:58;;;;;;;16.17;14.17;;;9.20;99.90;;;;;;4969925;28;20637;-68
2021/04/09 08:58:23;;;;;;;19.93;14.40;;;9.30;99.90;;;;;;4957055;28;20692;-63
2021/04/09 09:00:51;;;;;;;14.37;12.80;;;9.30;99.90;;;;;;4976722;28;21521;-65
2021/04/09 09:03:30;;;;;;;15.70;12.70;;;9.40;99.90;;;;;;4973866;28;20235;-65
2021/04/09 09:06:01;;;;;;;15.07;12.60;;;9.50;99.90;;;;;;4969349;28;20626;-65
2021/04/09 09:08:47;;;;;;;14.70;13.17;;;9.50;99.90;;;;;;4999929;28;20728;-63
2021/04/09 09:11:34;;;;;;;15.37;13.00;;;9.70;99.90;;;;;;4996885;28;21287;-65
2021/04/09 09:14:00;;;;;;;14.23;12.70;;;9.70;99.90;;;;;;4970841;28;22310;-64
2021/04/09 09:16:35;;;;;;;14.53;13.10;;;9.70;99.90;;;;;;4959363;28;22986;-66
2021/04/09 09:19:01;;;;;;;14.97;13.27;;;9.80;99.90;;;;;;4967610;28;20203;-65
2021/04/09 09:21:31;;;;;;;13.60;12.17;;;9.80;99.90;;;;;;4970231;28;20629;-64
2021/04/09 09:23:59;;;;;;;13.80;12.07;;;9.80;99.90;;;;;;4983208;28;20193;-65
2021/04/09 09:26:42;;;;;;;14.90;12.80;;;9.90;99.90;;;;;;4970414;28;20639;-64
2021/04/09 09:29:19;;;;;;;14.30;11.73;;;9.90;99.90;;;;;;4976869;28;21398;-65
2021/04/09 09:32:04;;;;;;;14.33;12.63;;;9.90;99.90;;;;;;4975585;28;23470;-64
2021/04/09 09:34:32;;;;;;;13.30;12.00;;;10.00;99.90;;;;;;4974374;28;21011;-64
2021/04/09 09:37:11;;;;;;;13.80;11.50;;;10.00;99.90;;;;;;4976231;28;20745;-64
2021/04/09 09:39:50;;;;;;;16.23;12.03;;;10.00;99.90;;;;;;4977896;28;20689;-64
2021/04/09 09:42:28;;;;;;;12.27;10.97;;;10.10;99.90;;;;;;4965502;28;22170;-65
2021/04/09 09:45:07;;;;;;;14.20;11.07;;;10.10;99.90;;;;;;4956059;28;20630;-64
2021/04/09 09:47:44;;;;;;;13.53;11.07;;;10.20;99.90;;;;;;4980579;28;21257;-65
2021/04/09 09:50:21;;;;;;;14.40;11.43;;;10.30;99.90;;;;;;4976976;28;21257;-64
2021/04/09 09:53:07;;;;;;;12.50;10.83;;;10.40;99.90;;;;;;4968838;28;20858;-64
2021/04/09 09:55:41;;;;;;;12.40;11.10;;;10.50;99.90;;;;;;4978265;28;21008;-65
2021/04/09 09:58:17;;;;;;;12.00;10.53;;;10.70;99.90;;;;;;4971648;28;20641;-63
2021/04/09 10:00:51;;;;;;;13.37;11.20;;;10.90;99.90;;;;;;4978466;28;20729;-64
2021/04/09 10:03:25;;;;;;;11.40;10.30;;;11.10;99.90;;;;;;4979084;28;21055;-64
2021/04/09 10:06:07;;;;;;;13.63;12.23;;;11.20;99.90;;;;;;4966790;28;20646;-65
2021/04/09 10:08:37;;;;;;;11.93;10.83;;;11.20;99.90;;;;;;4971452;28;23456;-64
2021/04/09 10:11:20;;;;;;;13.73;11.37;;;11.20;99.90;;;;;;4977827;28;20654;-64
2021/04/09 10:13:49;;;;;;;12.67;11.17;;;11.10;99.90;;;;;;4980351;28;20781;-65
2021/04/09 10:16:23;;;;;;;11.93;10.80;;;11.30;99.90;;;;;;4951108;28;21333;-65
2021/04/09 10:18:54;;;;;;;12.13;10.93;;;11.30;99.90;;;;;;4956190;28;20678;-66
2021/04/09 10:21:21;;;;;;;13.57;11.13;;;11.20;99.90;;;;;;4967134;28;20621;-63
2021/04/09 10:23:49;;;;;;;12.93;11.53;;;11.20;99.90;;;;;;4968595;28;20793;-63
2021/04/09 10:26:16;;;;;;;11.87;10.70;;;11.20;99.90;;;;;;4963521;28;21819;-64
2021/04/09 10:28:43;;;;;;;13.27;10.80;;;11.30;99.90;;;;;;4962858;28;20764;-63
2021/04/09 10:31:09;;;;;;;12.43;11.03;;;11.30;99.90;;;;;;4970599;28;21118;-64
2021/04/09 10:33:43;;;;;;;12.63;11.00;;;11.40;99.90;;;;;;4967439;28;21235;-72
2021/04/09 10:36:18;;;;;;;11.77;10.07;;;11.30;99.90;;;;;;4967437;28;20920;-63
2021/04/09 10:38:44;;;;;;;11.27;10.10;;;11.40;99.90;;;;;;4965332;28;20629;-66
2021/04/09 10:41:22;;;;;;;11.83;10.10;;;11.40;99.90;;;;;;4975518;28;21944;-64
2021/04/09 10:43:54;;;;;;;11.80;10.60;;;11.50;99.90;;;;;;4971446;28;20662;-65
2021/04/09 10:46:19;;;;;;;11.27;10.17;;;11.50;99.90;;;;;;4969160;28;20654;-65
2021/04/09 10:48:45;;;;;;;11.47;10.40;;;11.60;99.90;;;;;;4954621;28;20627;-68
2021/04/09 10:51:11;;;;;;;12.60;10.20;;;11.70;99.90;;;;;;4978096;28;20215;-66
2021/04/09 10:53:39;;;;;;;12.23;11.00;;;11.80;99.90;;;;;;4979432;28;20238;-65
2021/04/09 10:56:07;;;;;;;11.23;9.70;;;11.90;99.90;;;;;;4977066;28;20615;-64
2021/04/09 10:58:34;;;;;;;12.27;11.07;;;11.90;99.90;;;;;;4970865;28;20696;-65
2021/04/09 11:01:00;;;;;;;11.23;10.13;;;11.80;99.90;;;;;;4985268;28;20610;-64
2021/04/09 11:03:27;;;;;;;11.60;10.40;;;11.80;99.90;;;;;;4958875;28;21887;-64
2021/04/09 11:05:52;;;;;;;11.03;10.03;;;11.90;99.90;;;;;;4979540;28;20219;-66
2021/04/09 11:08:38;;;;;;;10.37;9.23;;;12.00;99.90;;;;;;4962872;28;20650;-66
2021/04/09 11:11:11;;;;;;;11.87;9.73;;;11.90;99.90;;;;;;4989713;28;20225;-64
2021/04/09 11:13:42;;;;;;;10.83;9.53;;;12.00;99.90;;;;;;4984687;28;21784;-66
2021/04/09 11:16:10;;;;;;;10.63;9.57;;;12.00;99.90;;;;;;4980318;28;20633;-65
2021/04/09 11:18:57;;;;;;;12.47;9.33;;;12.10;99.90;;;;;;4959188;28;22459;-66
2021/04/09 11:21:43;;;;;;;11.47;9.60;;;12.20;99.90;;;;;;4959761;28;20622;-64
2021/04/09 11:24:10;;;;;;;10.90;9.80;;;12.20;99.90;;;;;;4959709;28;20843;-65
2021/04/09 11:26:36;;;;;;;10.67;9.67;;;12.20;99.90;;;;;;4969305;28;21364;-63
2021/04/09 11:29:05;;;;;;;9.40;8.43;;;12.20;99.90;;;;;;4966595;28;22660;-65
2021/04/09 11:31:32;;;;;;;11.23;10.07;;;12.20;99.90;;;;;;4977337;28;20220;-66
2021/04/09 11:34:09;;;;;;;11.07;8.90;;;12.10;99.90;;;;;;4981700;28;20625;-64
2021/04/09 11:36:41;;;;;;;10.93;9.30;;;12.10;99.90;;;;;;4975134;28;21400;-64
2021/04/09 11:39:14;;;;;;;10.73;9.13;;;12.10;99.90;;;;;;4971567;28;21180;-64
2021/04/09 11:41:41;;;;;;;10.87;9.27;;;12.10;99.90;;;;;;4978696;28;21417;-65
2021/04/09 11:44:27;;;;;;;10.43;9.17;;;12.10;99.90;;;;;;4987727;28;21224;-64
2021/04/09 11:46:54;;;;;;;9.17;8.07;;;12.10;99.90;;;;;;4960287;28;21205;-65
2021/04/09 11:49:29;;;;;;;11.10;10.00;;;12.20;99.90;;;;;;4961764;28;20629;-64
2021/04/09 11:52:03;;;;;;;9.90;9.00;;;12.20;99.90;;;;;;4965344;28;20638;-63
2021/04/09 11:54:34;;;;;;;11.00;9.90;;;12.20;99.90;;;;;;4967059;28;20967;-63
2021/04/09 11:57:00;;;;;;;11.07;9.93;;;12.30;99.90;;;;;;4972847;28;21380;-63
2021/04/09 11:59:26;;;;;;;10.77;9.67;;;12.40;99.90;;;;;;4984209;28;21348;-64
2021/04/09 12:01:53;;;;;;;11.67;10.53;;;12.30;99.90;;;;;;4984949;28;20234;-64
2021/04/09 12:04:36;;;;;;;11.53;10.53;;;12.20;99.90;;;;;;4972779;28;20272;-64
2021/04/09 12:07:02;;;;;;;12.50;9.43;;;12.30;99.90;;;;;;4994785;28;20958;-64
2021/04/09 12:09:29;;;;;;;11.40;8.80;;;12.30;99.90;;;;;;5007616;28;20716;-64
2021/04/09 12:11:55;;;;;;;10.80;9.70;;;12.40;99.90;;;;;;4985963;28;20650;-63
2021/04/09 12:14:54;;;;;;;9.73;8.77;;;12.50;99.90;;;;;;4997762;28;21582;-63
2021/04/09 12:17:22;;;;;;;8.83;7.73;;;12.50;99.90;;;;;;4951558;28;20785;-64
2021/04/09 12:19:49;;;;;;;9.73;8.50;;;12.50;99.90;;;;;;4983516;28;20618;-63
2021/04/09 12:22:16;;;;;;;8.03;7.23;;;12.50;99.90;;;;;;4973978;28;20896;-64
2021/04/09 12:24:42;;;;;;;9.33;7.93;;;12.50;99.90;;;;;;4991665;28;21157;-63
2021/04/09 12:27:08;;;;;;;9.47;8.53;;;12.60;99.90;;;;;;4985562;28;20669;-64
2021/04/09 12:29:37;;;;;;;9.37;8.50;;;12.60;99.90;;;;;;4983779;28;20729;-63
2021/04/09 12:32:04;;;;;;;9.70;8.70;;;12.60;99.90;;;;;;4984220;28;20227;-67
2021/04/09 12:34:32;;;;;;;10.30;7.90;;;12.50;99.90;;;;;;4983367;28;20664;-65
2021/04/09 12:36:58;;;;;;;10.17;9.10;;;12.50;99.90;;;;;;4996651;28;20769;-65
2021/04/09 12:39:24;;;;;;;9.10;8.20;;;12.50;99.90;;;;;;4991195;28;20988;-64
2021/04/09 12:41:50;;;;;;;8.83;7.93;;;12.50;99.90;;;;;;4990467;28;21816;-64
2021/04/09 12:44:19;;;;;;;8.57;7.60;;;12.40;99.90;;;;;;4983580;28;20720;-64
2021/04/09 12:46:47;;;;;;;8.97;8.07;;;12.30;99.90;;;;;;4992556;28;20749;-66
2021/04/09 12:49:13;;;;;;;8.63;7.83;;;12.40;99.90;;;;;;4987988;28;20627;-64
2021/04/09 12:51:39;;;;;;;10.33;7.73;;;12.30;99.90;;;;;;4980884;28;20731;-65
2021/04/09 12:54:05;;;;;;;8.13;7.33;;;12.20;99.90;;;;;;4992292;28;20611;-63
2021/04/09 12:56:30;;;;;;;8.70;7.80;;;12.10;99.90;;;;;;4982989;28;20208;-65
2021/04/09 12:58:56;;;;;;;8.53;7.70;;;12.10;99.90;;;;;;4990232;28;20619;-64
2021/04/09 13:01:24;;;;;;;10.80;8.87;;;12.00;99.90;;;;;;4986443;28;20264;-64
2021/04/09 13:03:50;;;;;;;12.40;8.70;;;11.90;99.90;;;;;;4992756;28;20200;-64